sensor_id;sensor_type;location;lat;lon;timestamp;pressure;altitude;pressure_sealevel;temperature;humidity
43838;BME280;65998;46.256;7.534;2023-05-23T00:02:12;87023.06;;;19.67;60.00
43838;BME280;65998;46.256;7.534;2023-05-23T00:04:38;87030.75;;;19.67;60.22
43838;BME280;65998;46.256;7.534;2023-05-23T00:07:03;87027.28;;;19.66;60.07
43838;BME280;65998;46.256;7.534;2023-05-23T00:09:29;87026.50;;;19.68;60.20
43838;BME280;65998;46.256;7.534;2023-05-23T00:11:55;87030.75;;;19.67;59.94
43838;BME280;65998;46.256;7.534;2023-05-23T00:14:21;87035.63;;;19.66;60.19
43838;BME280;65998;46.256;7.534;2023-05-23T00:16:47;87035.63;;;19.66;59.91
43838;BME280;65998;46.256;7.534;2023-05-23T00:19:13;87030.06;;;19.66;59.98
43838;BME280;65998;46.256;7.534;2023-05-23T00:21:38;87034.97;;;19.66;59.92
43838;BME280;65998;46.256;7.534;2023-05-23T00:24:04;87033.63;;;19.65;60.02
43838;BME280;65998;46.256;7.534;2023-05-23T00:26:31;87028.03;;;19.65;59.67
43838;BME280;65998;46.256;7.534;2023-05-23T00:28:57;87031.50;;;19.65;59.80
43838;BME280;65998;46.256;7.534;2023-05-23T00:31:23;87032.19;;;19.66;59.79
43838;BME280;65998;46.256;7.534;2023-05-23T00:33:49;87027.34;;;19.64;59.78
43838;BME280;65998;46.256;7.534;2023-05-23T00:36:14;87022.47;;;19.65;59.64
43838;BME280;65998;46.256;7.534;2023-05-23T00:38:40;87019.66;;;19.65;59.74
43838;BME280;65998;46.256;7.534;2023-05-23T00:41:06;87023.22;;;19.63;59.63
43838;BME280;65998;46.256;7.534;2023-05-23T00:43:32;87023.91;;;19.64;59.60
43838;BME280;65998;46.256;7.534;2023-05-23T00:45:58;87019.00;;;19.64;59.64
43838;BME280;65998;46.256;7.534;2023-05-23T00:48:25;87019.09;;;19.62;59.39
43838;BME280;65998;46.256;7.534;2023-05-23T00:50:52;87014.84;;;19.63;59.49
43838;BME280;65998;46.256;7.534;2023-05-23T00:53:19;87019.09;;;19.62;59.40
43838;BME280;65998;46.256;7.534;2023-05-23T00:55:45;87017.06;;;19.61;59.32
43838;BME280;65998;46.256;7.534;2023-05-23T00:58:11;87017.72;;;19.61;59.47
43838;BME280;65998;46.256;7.534;2023-05-23T01:00:38;87023.31;;;19.61;59.26
43838;BME280;65998;46.256;7.534;2023-05-23T01:03:03;87018.41;;;19.62;59.46
43838;BME280;65998;46.256;7.534;2023-05-23T01:05:29;87018.50;;;19.60;59.29
43838;BME280;65998;46.256;7.534;2023-05-23T01:07:55;87015.03;;;19.59;59.36
43838;BME280;65998;46.256;7.534;2023-05-23T01:10:28;87014.25;;;19.61;59.38
43838;BME280;65998;46.256;7.534;2023-05-23T01:18:31;87023.38;;;19.59;59.28
43838;BME280;65998;46.256;7.534;2023-05-23T01:21:16;87025.50;;;19.59;59.02
43838;BME280;65998;46.256;7.534;2023-05-23T01:29:03;87022.03;;;19.58;59.07
43838;BME280;65998;46.256;7.534;2023-05-23T01:31:29;87027.63;;;19.58;59.02
43838;BME280;65998;46.256;7.534;2023-05-23T01:33:55;87023.47;;;19.57;59.18
43838;BME280;65998;46.256;7.534;2023-05-23T01:36:22;87020.78;;;19.55;58.94
43838;BME280;65998;46.256;7.534;2023-05-23T01:38:47;87020.00;;;19.57;59.12
43838;BME280;65998;46.256;7.534;2023-05-23T01:41:13;87022.78;;;19.57;59.03
43838;BME280;65998;46.256;7.534;2023-05-23T01:43:39;87017.22;;;19.57;59.16
43838;BME280;65998;46.256;7.534;2023-05-23T01:46:06;87015.13;;;19.57;59.18
43838;BME280;65998;46.256;7.534;2023-05-23T01:48:33;87011.66;;;19.57;59.15
43838;BME280;65998;46.256;7.534;2023-05-23T01:51:00;87008.88;;;19.57;58.83
43838;BME280;65998;46.256;7.534;2023-05-23T01:53:27;86997.03;;;19.56;58.97
43838;BME280;65998;46.256;7.534;2023-05-23T01:55:54;87003.38;;;19.55;58.95
43838;BME280;65998;46.256;7.534;2023-05-23T01:58:21;87006.16;;;19.55;59.04
43838;BME280;65998;46.256;7.534;2023-05-23T02:00:46;87001.25;;;19.55;58.79
43838;BME280;65998;46.256;7.534;2023-05-23T02:03:13;87008.28;;;19.54;58.74
43838;BME280;65998;46.256;7.534;2023-05-23T02:05:38;86999.16;;;19.56;58.88
43838;BME280;65998;46.256;7.534;2023-05-23T02:08:04;87000.59;;;19.55;58.83
43838;BME280;65998;46.256;7.534;2023-05-23T02:10:30;87004.06;;;19.55;58.66
43838;BME280;65998;46.256;7.534;2023-05-23T02:12:56;87000.59;;;19.55;58.84
43838;BME280;65998;46.256;7.534;2023-05-23T02:15:22;87003.38;;;19.55;58.83
43838;BME280;65998;46.256;7.534;2023-05-23T02:17:48;86995.78;;;19.53;58.49
43838;BME280;65998;46.256;7.534;2023-05-23T02:20:13;86997.81;;;19.55;58.56
43838;BME280;65998;46.256;7.534;2023-05-23T02:22:39;86998.56;;;19.53;58.63
43838;BME280;65998;46.256;7.534;2023-05-23T02:25:06;87004.81;;;19.54;58.58
43838;BME280;65998;46.256;7.534;2023-05-23T02:27:32;87006.25;;;19.53;58.51
43838;BME280;65998;46.256;7.534;2023-05-23T02:29:57;87006.91;;;19.53;58.41
43838;BME280;65998;46.256;7.534;2023-05-23T02:32:23;87002.78;;;19.52;58.59
43838;BME280;65998;46.256;7.534;2023-05-23T02:34:49;87004.19;;;19.51;58.37
43838;BME280;65998;46.256;7.534;2023-05-23T02:37:15;87006.97;;;19.51;58.46
43838;BME280;65998;46.256;7.534;2023-05-23T02:39:42;87008.34;;;19.52;58.52
43838;BME280;65998;46.256;7.534;2023-05-23T02:42:08;87004.19;;;19.51;58.43
43838;BME280;65998;46.256;7.534;2023-05-23T02:44:34;87002.84;;;19.50;58.35
43838;BME280;65998;46.256;7.534;2023-05-23T02:47:00;87005.63;;;19.50;58.54
43838;BME280;65998;46.256;7.534;2023-05-23T02:49:25;87013.31;;;19.50;58.48
43838;BME280;65998;46.256;7.534;2023-05-23T02:51:51;87018.22;;;19.49;58.46
43838;BME280;65998;46.256;7.534;2023-05-23T02:54:17;87018.22;;;19.49;58.38
43838;BME280;65998;46.256;7.534;2023-05-23T02:56:46;87014.75;;;19.49;58.58
43838;BME280;65998;46.256;7.534;2023-05-23T02:59:12;87029.34;;;19.49;58.61
43838;BME280;65998;46.256;7.534;2023-05-23T03:01:38;87021.75;;;19.48;58.56
43838;BME280;65998;46.256;7.534;2023-05-23T03:04:03;87016.84;;;19.48;58.35
43838;BME280;65998;46.256;7.534;2023-05-23T03:06:29;87014.84;;;19.46;58.42
43838;BME280;65998;46.256;7.534;2023-05-23T03:08:55;87008.59;;;19.46;58.48
43838;BME280;65998;46.256;7.534;2023-05-23T03:11:21;87012.72;;;19.47;58.45
43838;BME280;65998;46.256;7.534;2023-05-23T03:13:46;87014.16;;;19.46;58.42
43838;BME280;65998;46.256;7.534;2023-05-23T03:16:12;87019.72;;;19.46;58.67
43838;BME280;65998;46.256;7.534;2023-05-23T03:18:38;87014.16;;;19.46;58.92
43838;BME280;65998;46.256;7.534;2023-05-23T03:21:04;87006.56;;;19.44;59.33
43838;BME280;65998;46.256;7.534;2023-05-23T03:23:29;87017.03;;;19.44;59.38
43838;BME280;65998;46.256;7.534;2023-05-23T03:25:55;87012.13;;;19.44;59.47
43838;BME280;65998;46.256;7.534;2023-05-23T03:28:21;87017.03;;;19.44;59.63
43838;BME280;65998;46.256;7.534;2023-05-23T03:30:47;87016.34;;;19.43;59.99
43838;BME280;65998;46.256;7.534;2023-05-23T03:33:12;87020.56;;;19.42;59.95
43838;BME280;65998;46.256;7.534;2023-05-23T03:35:38;87025.47;;;19.42;60.18
43838;BME280;65998;46.256;7.534;2023-05-23T03:38:04;87020.66;;;19.40;60.29
43838;BME280;65998;46.256;7.534;2023-05-23T03:40:30;87021.34;;;19.41;60.47
43838;BME280;65998;46.256;7.534;2023-05-23T03:43:03;87019.22;;;19.41;60.34
43838;BME280;65998;46.256;7.534;2023-05-23T03:45:30;87013.66;;;19.41;60.39
43838;BME280;65998;46.256;7.534;2023-05-23T03:47:56;87021.34;;;19.41;60.63
43838;BME280;65998;46.256;7.534;2023-05-23T03:50:22;87016.53;;;19.39;60.67
43838;BME280;65998;46.256;7.534;2023-05-23T03:52:48;87022.09;;;19.39;60.69
43838;BME280;65998;46.256;7.534;2023-05-23T03:55:14;87017.19;;;19.40;60.61
43838;BME280;65998;46.256;7.534;2023-05-23T03:57:39;87022.09;;;19.39;60.63
43838;BME280;65998;46.256;7.534;2023-05-23T04:00:06;87024.88;;;19.39;60.76
43838;BME280;65998;46.256;7.534;2023-05-23T04:02:32;87020.75;;;19.38;60.84
43838;BME280;65998;46.256;7.534;2023-05-23T04:04:58;87024.19;;;19.39;60.96
43838;BME280;65998;46.256;7.534;2023-05-23T04:07:23;87022.84;;;19.38;60.98
43838;BME280;65998;46.256;7.534;2023-05-23T04:09:49;87018.72;;;19.37;61.01
43838;BME280;65998;46.256;7.534;2023-05-23T04:12:15;87021.50;;;19.37;60.86
43838;BME280;65998;46.256;7.534;2023-05-23T04:14:41;87020.81;;;19.36;60.92
43838;BME280;65998;46.256;7.534;2023-05-23T04:17:07;87018.72;;;19.37;61.00
43838;BME280;65998;46.256;7.534;2023-05-23T04:19:33;87025.03;;;19.35;60.98
43838;BME280;65998;46.256;7.534;2023-05-23T04:21:58;87030.63;;;19.35;60.98
43838;BME280;65998;46.256;7.534;2023-05-23T04:24:24;87023.69;;;19.34;61.04
43838;BME280;65998;46.256;7.534;2023-05-23T04:26:50;87029.25;;;19.34;60.95
43838;BME280;65998;46.256;7.534;2023-05-23T04:29:16;87037.63;;;19.34;61.04
43838;BME280;65998;46.256;7.534;2023-05-23T04:31:41;87031.38;;;19.34;61.12
43838;BME280;65998;46.256;7.534;2023-05-23T04:34:07;87031.38;;;19.34;61.36
43838;BME280;65998;46.256;7.534;2023-05-23T04:36:33;87026.56;;;19.32;61.14
43838;BME280;65998;46.256;7.534;2023-05-23T04:38:59;87040.50;;;19.32;61.16
43838;BME280;65998;46.256;7.534;2023-05-23T04:41:24;87030.78;;;19.31;61.11
43838;BME280;65998;46.256;7.534;2023-05-23T04:43:50;87038.47;;;19.31;61.17
43838;BME280;65998;46.256;7.534;2023-05-23T04:46:16;87032.22;;;19.30;61.11
43838;BME280;65998;46.256;7.534;2023-05-23T04:48:42;87034.31;;;19.30;61.00
43838;BME280;65998;46.256;7.534;2023-05-23T04:51:07;87030.19;;;19.29;61.13
43838;BME280;65998;46.256;7.534;2023-05-23T04:53:34;87037.13;;;19.30;60.95
43838;BME280;65998;46.256;7.534;2023-05-23T04:55:59;87030.88;;;19.29;61.00
43838;BME280;65998;46.256;7.534;2023-05-23T04:58:26;87034.31;;;19.30;61.05
43838;BME280;65998;46.256;7.534;2023-05-23T05:00:51;87032.28;;;19.28;61.01
43838;BME280;65998;46.256;7.534;2023-05-23T05:03:17;87033.72;;;19.27;61.15
43838;BME280;65998;46.256;7.534;2023-05-23T05:05:43;87033.06;;;19.27;61.00
43838;BME280;65998;46.256;7.534;2023-05-23T05:08:09;87031.69;;;19.26;60.90
43838;BME280;65998;46.256;7.534;2023-05-23T05:10:34;87037.28;;;19.26;60.98
43838;BME280;65998;46.256;7.534;2023-05-23T05:13:00;87034.50;;;19.26;61.11
43838;BME280;65998;46.256;7.534;2023-05-23T05:15:26;87031.03;;;19.25;61.16
43838;BME280;65998;46.256;7.534;2023-05-23T05:17:52;87039.38;;;19.25;61.18
43838;BME280;65998;46.256;7.534;2023-05-23T05:20:18;87033.13;;;19.25;61.18
43838;BME280;65998;46.256;7.534;2023-05-23T05:22:44;87038.72;;;19.25;61.11
43838;BME280;65998;46.256;7.534;2023-05-23T05:25:10;87034.56;;;19.24;60.96
43838;BME280;65998;46.256;7.534;2023-05-23T05:27:36;87040.16;;;19.24;61.06
43838;BME280;65998;46.256;7.534;2023-05-23T05:30:06;87038.72;;;19.25;60.98
43838;BME280;65998;46.256;7.534;2023-05-23T05:32:32;87040.16;;;19.24;60.93
43838;BME280;65998;46.256;7.534;2023-05-23T05:35:01;87036.69;;;19.23;60.97
43838;BME280;65998;46.256;7.534;2023-05-23T05:37:28;87031.78;;;19.24;61.19
43838;BME280;65998;46.256;7.534;2023-05-23T05:39:54;87038.03;;;19.24;60.98
43838;BME280;65998;46.256;7.534;2023-05-23T05:42:21;87034.56;;;19.24;60.79
43838;BME280;65998;46.256;7.534;2023-05-23T05:44:47;87038.03;;;19.24;60.81
43838;BME280;65998;46.256;7.534;2023-05-23T05:47:14;87031.09;;;19.23;60.90
43838;BME280;65998;46.256;7.534;2023-05-23T05:49:40;87036.69;;;19.23;61.03
43838;BME280;65998;46.256;7.534;2023-05-23T05:52:07;87029.69;;;19.24;60.79
43838;BME280;65998;46.256;7.534;2023-05-23T05:54:32;87030.44;;;19.23;60.97
43838;BME280;65998;46.256;7.534;2023-05-23T05:56:59;87031.78;;;19.24;61.08
43838;BME280;65998;46.256;7.534;2023-05-23T05:59:25;87029.00;;;19.24;60.79
43838;BME280;65998;46.256;7.534;2023-05-23T06:01:51;87038.72;;;19.25;60.84
43838;BME280;65998;46.256;7.534;2023-05-23T06:04:17;87030.34;;;19.25;60.86
43838;BME280;65998;46.256;7.534;2023-05-23T06:06:43;87033.81;;;19.25;60.68
43838;BME280;65998;46.256;7.534;2023-05-23T06:09:09;87031.69;;;19.26;60.71
43838;BME280;65998;46.256;7.534;2023-05-23T06:11:36;87036.53;;;19.27;60.89
43838;BME280;65998;46.256;7.534;2023-05-23T06:14:01;87028.16;;;19.27;60.68
43838;BME280;65998;46.256;7.534;2023-05-23T06:16:27;87024.69;;;19.27;60.47
43838;BME280;65998;46.256;7.534;2023-05-23T06:18:53;87025.38;;;19.27;60.11
43838;BME280;65998;46.256;7.534;2023-05-23T06:21:19;87026.13;;;19.26;59.51
43838;BME280;65998;46.256;7.534;2023-05-23T06:23:44;87028.75;;;19.30;59.29
43838;BME280;65998;46.256;7.534;2023-05-23T06:26:10;87030.19;;;19.29;58.83
43838;BME280;65998;46.256;7.534;2023-05-23T06:28:39;87025.97;;;19.30;58.80
43838;BME280;65998;46.256;7.534;2023-05-23T06:31:05;87037.78;;;19.30;58.54
43838;BME280;65998;46.256;7.534;2023-05-23T06:33:33;87030.78;;;19.31;58.41
43838;BME280;65998;46.256;7.534;2023-05-23T06:35:59;87029.44;;;19.30;58.14
43838;BME280;65998;46.256;7.534;2023-05-23T06:38:28;87029.44;;;19.30;58.16
43838;BME280;65998;46.256;7.534;2023-05-23T06:40:55;87028.75;;;19.30;58.12
43838;BME280;65998;46.256;7.534;2023-05-23T06:43:21;87032.22;;;19.30;57.91
43838;BME280;65998;46.256;7.534;2023-05-23T06:45:47;87026.66;;;19.30;57.83
43838;BME280;65998;46.256;7.534;2023-05-23T06:48:13;87024.44;;;19.33;57.81
43838;BME280;65998;46.256;7.534;2023-05-23T06:50:39;87022.34;;;19.33;57.76
43838;BME280;65998;46.256;7.534;2023-05-23T06:53:05;87028.59;;;19.34;57.66
43838;BME280;65998;46.256;7.534;2023-05-23T06:55:31;87030.63;;;19.35;57.58
43838;BME280;65998;46.256;7.534;2023-05-23T06:57:56;87021.59;;;19.35;57.58
43838;BME280;65998;46.256;7.534;2023-05-23T07:00:22;87023.59;;;19.36;57.43
43838;BME280;65998;46.256;7.534;2023-05-23T07:02:48;87029.19;;;19.36;57.45
43838;BME280;65998;46.256;7.534;2023-05-23T07:05:14;87020.81;;;19.36;57.33
43838;BME280;65998;46.256;7.534;2023-05-23T07:07:41;87015.16;;;19.38;57.16
43838;BME280;65998;46.256;7.534;2023-05-23T07:10:08;87020.75;;;19.38;57.27
43838;BME280;65998;46.256;7.534;2023-05-23T07:12:35;87029.09;;;19.38;57.21
43838;BME280;65998;46.256;7.534;2023-05-23T07:15:01;87009.59;;;19.38;57.15
43838;BME280;65998;46.256;7.534;2023-05-23T07:17:27;87016.53;;;19.39;57.33
43838;BME280;65998;46.256;7.534;2023-05-23T07:19:53;87010.94;;;19.39;57.17
43838;BME280;65998;46.256;7.534;2023-05-23T07:22:18;87016.44;;;19.41;56.93
43838;BME280;65998;46.256;7.534;2023-05-23T07:24:44;87012.97;;;19.41;57.18
43838;BME280;65998;46.256;7.534;2023-05-23T07:27:10;87012.97;;;19.41;56.77
43838;BME280;65998;46.256;7.534;2023-05-23T07:29:36;87010.88;;;19.41;56.92
43838;BME280;65998;46.256;7.534;2023-05-23T07:32:01;87010.09;;;19.43;56.72
43838;BME280;65998;46.256;7.534;2023-05-23T07:34:27;87007.31;;;19.43;56.97
43838;BME280;65998;46.256;7.534;2023-05-23T07:36:53;87008.66;;;19.44;56.69
43838;BME280;65998;46.256;7.534;2023-05-23T07:39:19;87014.25;;;19.44;56.73
43838;BME280;65998;46.256;7.534;2023-05-23T07:41:44;87013.47;;;19.45;56.58
43838;BME280;65998;46.256;7.534;2023-05-23T07:44:10;87013.47;;;19.45;56.69
43838;BME280;65998;46.256;7.534;2023-05-23T07:46:36;87009.25;;;19.46;56.86
43838;BME280;65998;46.256;7.534;2023-05-23T07:49:02;87005.78;;;19.46;56.42
43838;BME280;65998;46.256;7.534;2023-05-23T07:51:28;87006.47;;;19.46;56.43
43838;BME280;65998;46.256;7.534;2023-05-23T07:53:54;87005.72;;;19.48;56.40
43838;BME280;65998;46.256;7.534;2023-05-23T07:56:19;87003.59;;;19.49;56.31
43838;BME280;65998;46.256;7.534;2023-05-23T07:58:45;87005.72;;;19.48;56.37
43838;BME280;65998;46.256;7.534;2023-05-23T08:01:11;86999.38;;;19.50;56.25
43838;BME280;65998;46.256;7.534;2023-05-23T08:03:37;86994.47;;;19.50;56.36
43838;BME280;65998;46.256;7.534;2023-05-23T08:06:03;86997.94;;;19.51;56.14
43838;BME280;65998;46.256;7.534;2023-05-23T08:08:29;86988.16;;;19.52;56.13
43838;BME280;65998;46.256;7.534;2023-05-23T08:10:54;86985.34;;;19.52;56.08
43838;BME280;65998;46.256;7.534;2023-05-23T08:13:20;86990.94;;;19.52;56.01
43838;BME280;65998;46.256;7.534;2023-05-23T08:15:46;86983.94;;;19.53;56.12
43838;BME280;65998;46.256;7.534;2023-05-23T08:18:12;86983.28;;;19.52;55.99
43838;BME280;65998;46.256;7.534;2023-05-23T08:20:37;86995.78;;;19.53;55.79
43838;BME280;65998;46.256;7.534;2023-05-23T08:23:03;86994.41;;;19.52;56.01
43838;BME280;65998;46.256;7.534;2023-05-23T08:25:29;86986.06;;;19.52;55.91
43838;BME280;65998;46.256;7.534;2023-05-23T08:27:58;86991.63;;;19.52;55.76
43838;BME280;65998;46.256;7.534;2023-05-23T08:30:26;86992.38;;;19.51;55.91
43838;BME280;65998;46.256;7.534;2023-05-23T08:32:53;86991.03;;;19.50;56.01
43838;BME280;65998;46.256;7.534;2023-05-23T08:35:18;86994.56;;;19.48;55.88
43838;BME280;65998;46.256;7.534;2023-05-23T08:37:44;86993.22;;;19.47;55.98
43838;BME280;65998;46.256;7.534;2023-05-23T08:40:13;87000.13;;;19.48;55.88
43838;BME280;65998;46.256;7.534;2023-05-23T08:42:43;86996.75;;;19.45;56.09
43838;BME280;65998;46.256;7.534;2023-05-23T08:45:09;86999.53;;;19.45;56.11
43838;BME280;65998;46.256;7.534;2023-05-23T08:47:42;86998.19;;;19.44;55.98
43838;BME280;65998;46.256;7.534;2023-05-23T08:50:11;86999.53;;;19.45;56.03
43838;BME280;65998;46.256;7.534;2023-05-23T08:52:43;86999.53;;;19.45;56.13
43838;BME280;65998;46.256;7.534;2023-05-23T08:55:12;86992.63;;;19.44;56.00
43838;BME280;65998;46.256;7.534;2023-05-23T08:57:40;86994.06;;;19.43;55.94
43838;BME280;65998;46.256;7.534;2023-05-23T09:00:07;86991.94;;;19.44;55.94
43838;BME280;65998;46.256;7.534;2023-05-23T09:02:33;86996.16;;;19.43;55.94
43838;BME280;65998;46.256;7.534;2023-05-23T09:04:59;86990.59;;;19.43;55.95
43838;BME280;65998;46.256;7.534;2023-05-23T09:07:27;86996.16;;;19.43;55.92
43838;BME280;65998;46.256;7.534;2023-05-23T09:09:53;86992.72;;;19.42;55.99
43838;BME280;65998;46.256;7.534;2023-05-23T09:12:19;87000.38;;;19.42;56.08
43838;BME280;65998;46.256;7.534;2023-05-23T09:14:45;86991.34;;;19.41;56.04
43838;BME280;65998;46.256;7.534;2023-05-23T09:17:15;86995.50;;;19.42;56.06
43838;BME280;65998;46.256;7.534;2023-05-23T09:19:42;86996.94;;;19.41;56.19
43838;BME280;65998;46.256;7.534;2023-05-23T09:22:08;86997.59;;;19.42;55.86
43838;BME280;65998;46.256;7.534;2023-05-23T09:24:34;86996.25;;;19.41;55.95
43838;BME280;65998;46.256;7.534;2023-05-23T09:27:01;86993.47;;;19.41;55.93
43838;BME280;65998;46.256;7.534;2023-05-23T09:29:26;86987.22;;;19.40;56.13
43838;BME280;65998;46.256;7.534;2023-05-23T09:31:59;86991.34;;;19.41;55.91
43838;BME280;65998;46.256;7.534;2023-05-23T09:34:24;86990.00;;;19.40;55.93
43838;BME280;65998;46.256;7.534;2023-05-23T09:36:54;86979.53;;;19.41;55.91
43838;BME280;65998;46.256;7.534;2023-05-23T09:39:19;86978.19;;;19.40;55.97
43838;BME280;65998;46.256;7.534;2023-05-23T09:41:47;86976.06;;;19.40;55.96
43838;BME280;65998;46.256;7.534;2023-05-23T09:44:13;86976.84;;;19.39;56.15
43838;BME280;65998;46.256;7.534;2023-05-23T09:46:49;86973.28;;;19.40;55.95
43838;BME280;65998;46.256;7.534;2023-05-23T09:49:16;86971.94;;;19.39;56.10
43838;BME280;65998;46.256;7.534;2023-05-23T09:51:42;86971.94;;;19.39;56.06
43838;BME280;65998;46.256;7.534;2023-05-23T09:54:08;86967.78;;;19.38;56.26
43838;BME280;65998;46.256;7.534;2023-05-23T09:56:39;86968.47;;;19.39;56.23
43838;BME280;65998;46.256;7.534;2023-05-23T09:59:05;86969.91;;;19.38;56.30
43838;BME280;65998;46.256;7.534;2023-05-23T10:01:32;86966.44;;;19.37;56.30
43838;BME280;65998;46.256;7.534;2023-05-23T10:03:58;86965.78;;;19.37;56.16
43838;BME280;65998;46.256;7.534;2023-05-23T10:06:26;86963.66;;;19.37;56.43
43838;BME280;65998;46.256;7.534;2023-05-23T10:09:04;86961.56;;;19.38;56.36
43838;BME280;65998;46.256;7.534;2023-05-23T10:14:05;86961.56;;;19.38;56.23
43838;BME280;65998;46.256;7.534;2023-05-23T10:16:43;86960.19;;;19.37;56.25
43838;BME280;65998;46.256;7.534;2023-05-23T10:22:03;86954.63;;;19.37;56.45
43838;BME280;65998;46.256;7.534;2023-05-23T10:24:31;86959.53;;;19.36;56.47
43838;BME280;65998;46.256;7.534;2023-05-23T10:26:58;86960.97;;;19.35;56.45
43838;BME280;65998;46.256;7.534;2023-05-23T10:29:24;86956.06;;;19.36;56.44
43838;BME280;65998;46.256;7.534;2023-05-23T10:31:52;86947.69;;;19.36;56.52
43838;BME280;65998;46.256;7.534;2023-05-23T10:34:36;86951.25;;;19.34;56.62
43838;BME280;65998;46.256;7.534;2023-05-23T10:37:06;86958.84;;;19.36;56.67
43838;BME280;65998;46.256;7.534;2023-05-23T10:39:59;86942.13;;;19.36;56.54
43838;BME280;65998;46.256;7.534;2023-05-23T10:42:55;86947.03;;;19.35;56.61
43838;BME280;65998;46.256;7.534;2023-05-23T10:45:23;86943.56;;;19.35;56.46
43838;BME280;65998;46.256;7.534;2023-05-23T10:47:52;86944.25;;;19.35;56.80
43838;BME280;65998;46.256;7.534;2023-05-23T10:52:56;86941.47;;;19.35;56.74
43838;BME280;65998;46.256;7.534;2023-05-23T10:55:22;86934.53;;;19.34;56.81
43838;BME280;65998;46.256;7.534;2023-05-23T10:58:11;86930.97;;;19.36;56.86
43838;BME280;65998;46.256;7.534;2023-05-23T11:00:50;86926.84;;;19.35;56.83
43838;BME280;65998;46.256;7.534;2023-05-23T11:03:16;86924.06;;;19.35;56.89
43838;BME280;65998;46.256;7.534;2023-05-23T11:05:47;86925.41;;;19.36;56.89
43838;BME280;65998;46.256;7.534;2023-05-23T11:08:19;86925.41;;;19.36;56.96
43838;BME280;65998;46.256;7.534;2023-05-23T11:13:18;86922.72;;;19.34;56.89
43838;BME280;65998;46.256;7.534;2023-05-23T11:15:44;86919.16;;;19.35;56.78
43838;BME280;65998;46.256;7.534;2023-05-23T11:18:22;86919.16;;;19.35;56.77
43838;BME280;65998;46.256;7.534;2023-05-23T11:20:51;86913.59;;;19.35;56.97
43838;BME280;65998;46.256;7.534;2023-05-23T11:23:17;86914.28;;;19.36;56.89
43838;BME280;65998;46.256;7.534;2023-05-23T11:25:47;86912.16;;;19.36;57.02
43838;BME280;65998;46.256;7.534;2023-05-23T11:28:14;86908.03;;;19.35;57.02
43838;BME280;65998;46.256;7.534;2023-05-23T11:30:40;86908.69;;;19.36;56.90
43838;BME280;65998;46.256;7.534;2023-05-23T11:33:11;86908.69;;;19.36;56.87
43838;BME280;65998;46.256;7.534;2023-05-23T11:35:36;86908.69;;;19.36;57.12
43838;BME280;65998;46.256;7.534;2023-05-23T11:38:03;86903.13;;;19.36;57.07
43838;BME280;65998;46.256;7.534;2023-05-23T11:40:34;86908.59;;;19.38;57.08
43838;BME280;65998;46.256;7.534;2023-05-23T11:43:11;86896.13;;;19.37;56.93
43838;BME280;65998;46.256;7.534;2023-05-23T11:45:38;86901.69;;;19.37;57.10
43838;BME280;65998;46.256;7.534;2023-05-23T11:48:11;86894.00;;;19.37;57.22
43838;BME280;65998;46.256;7.534;2023-05-23T11:50:47;86894.69;;;19.38;57.18
43838;BME280;65998;46.256;7.534;2023-05-23T11:53:14;86892.56;;;19.38;57.05
43838;BME280;65998;46.256;7.534;2023-05-23T11:55:47;86896.03;;;19.39;57.22
43838;BME280;65998;46.256;7.534;2023-05-23T11:58:14;86889.78;;;19.38;57.15
43838;BME280;65998;46.256;7.534;2023-05-23T12:00:43;86891.13;;;19.39;57.21
43838;BME280;65998;46.256;7.534;2023-05-23T12:03:10;86881.41;;;19.38;57.21
43838;BME280;65998;46.256;7.534;2023-05-23T12:05:35;86877.88;;;19.40;57.36
43838;BME280;65998;46.256;7.534;2023-05-23T12:08:01;86875.09;;;19.40;57.27
43838;BME280;65998;46.256;7.534;2023-05-23T12:10:27;86876.44;;;19.41;57.38
43838;BME280;65998;46.256;7.534;2023-05-23T12:12:53;86872.97;;;19.40;57.35
43838;BME280;65998;46.256;7.534;2023-05-23T12:15:24;86867.41;;;19.40;57.19
43838;BME280;65998;46.256;7.534;2023-05-23T12:17:53;86867.41;;;19.40;57.22
43838;BME280;65998;46.256;7.534;2023-05-23T12:20:19;86872.97;;;19.40;57.35
43838;BME280;65998;46.256;7.534;2023-05-23T12:22:45;86871.53;;;19.41;57.44
43838;BME280;65998;46.256;7.534;2023-05-23T12:25:11;86871.53;;;19.41;57.30
43838;BME280;65998;46.256;7.534;2023-05-23T12:27:39;86867.31;;;19.42;57.47
43838;BME280;65998;46.256;7.534;2023-05-23T12:30:07;86865.97;;;19.41;57.35
43838;BME280;65998;46.256;7.534;2023-05-23T12:32:33;86867.31;;;19.42;57.31
43838;BME280;65998;46.256;7.534;2023-05-23T12:34:59;86863.75;;;19.44;57.61
43838;BME280;65998;46.256;7.534;2023-05-23T12:37:25;86861.75;;;19.42;57.58
43838;BME280;65998;46.256;7.534;2023-05-23T12:39:51;86863.84;;;19.42;57.55
43838;BME280;65998;46.256;7.534;2023-05-23T12:42:17;86860.31;;;19.43;57.45
43838;BME280;65998;46.256;7.534;2023-05-23T12:44:43;86861.06;;;19.42;57.53
43838;BME280;65998;46.256;7.534;2023-05-23T12:47:09;86853.47;;;19.40;57.38
43838;BME280;65998;46.256;7.534;2023-05-23T12:49:34;86852.72;;;19.42;57.75
43838;BME280;65998;46.256;7.534;2023-05-23T12:52:01;86852.03;;;19.41;57.82
43838;BME280;65998;46.256;7.534;2023-05-23T12:54:26;86847.13;;;19.42;57.70
43838;BME280;65998;46.256;7.534;2023-05-23T12:56:52;86846.38;;;19.43;57.65
43838;BME280;65998;46.256;7.534;2023-05-23T12:59:18;86852.72;;;19.42;57.72
43838;BME280;65998;46.256;7.534;2023-05-23T13:01:45;86850.59;;;19.42;57.75
43838;BME280;65998;46.256;7.534;2023-05-23T13:04:10;86849.16;;;19.43;57.64
43838;BME280;65998;46.256;7.534;2023-05-23T13:06:36;86846.38;;;19.43;57.94
43838;BME280;65998;46.256;7.534;2023-05-23T13:09:02;86843.59;;;19.43;57.83
43838;BME280;65998;46.256;7.534;2023-05-23T13:11:28;86847.03;;;19.44;57.72
43838;BME280;65998;46.256;7.534;2023-05-23T13:13:55;86841.47;;;19.44;57.85
43838;BME280;65998;46.256;7.534;2023-05-23T13:16:20;86835.91;;;19.44;58.01
43838;BME280;65998;46.256;7.534;2023-05-23T13:18:46;86829.56;;;19.45;57.72
43838;BME280;65998;46.256;7.534;2023-05-23T13:21:12;86837.84;;;19.48;57.69